Terminal Aerodrome Forecast
Issued by NWS

Home | Current Version | Previous Version | Text Only | Print | Product List | Glossary Off
Versions: 1 2 3 4 5 6 7 8 9 10 11 12 13 14 15 16 17 18 19 20 21 22 23 24 25 26 27

000
FTUS43 KABR 190500 CCA
TAFATY
TAF AMD
KATY 190539Z 1906/2006 18007KT 4SM BR OVC005
      TEMPO 1906/1910 2SM -FZDZ
     FM191500 17006KT P6SM SKC=

USA.gov is the U.S. government's official web portal to all federal, state and local government web resources and services.